sensor_id;sensor_type;location;lat;lon;timestamp;P1;durP1;ratioP1;P2;durP2;ratioP2
17812;SDS011;9030;50.792;8.320;2023-06-26T00:01:53;12.77;;;10.38;;
17812;SDS011;9030;50.792;8.320;2023-06-26T00:04:19;13.55;;;10.65;;
17812;SDS011;9030;50.792;8.320;2023-06-26T00:06:46;11.73;;;9.75;;
17812;SDS011;9030;50.792;8.320;2023-06-26T00:09:13;12.90;;;10.90;;
17812;SDS011;9030;50.792;8.320;2023-06-26T00:11:39;15.75;;;9.98;;
17812;SDS011;9030;50.792;8.320;2023-06-26T00:14:06;12.75;;;10.15;;
17812;SDS011;9030;50.792;8.320;2023-06-26T00:16:34;12.88;;;10.45;;
17812;SDS011;9030;50.792;8.320;2023-06-26T00:19:01;12.77;;;9.43;;
17812;SDS011;9030;50.792;8.320;2023-06-26T00:21:28;15.60;;;10.90;;
17812;SDS011;9030;50.792;8.320;2023-06-26T00:23:54;14.18;;;11.02;;
17812;SDS011;9030;50.792;8.320;2023-06-26T00:26:21;13.70;;;10.60;;
17812;SDS011;9030;50.792;8.320;2023-06-26T00:28:49;13.63;;;10.18;;
17812;SDS011;9030;50.792;8.320;2023-06-26T00:31:15;15.23;;;10.10;;
17812;SDS011;9030;50.792;8.320;2023-06-26T00:33:43;14.40;;;11.10;;
17812;SDS011;9030;50.792;8.320;2023-06-26T00:36:10;14.48;;;11.25;;
17812;SDS011;9030;50.792;8.320;2023-06-26T00:38:37;14.15;;;10.90;;
17812;SDS011;9030;50.792;8.320;2023-06-26T00:41:03;12.68;;;10.32;;
17812;SDS011;9030;50.792;8.320;2023-06-26T00:43:30;13.65;;;11.02;;
17812;SDS011;9030;50.792;8.320;2023-06-26T00:45:57;15.30;;;11.55;;
17812;SDS011;9030;50.792;8.320;2023-06-26T00:48:23;14.43;;;11.45;;
17812;SDS011;9030;50.792;8.320;2023-06-26T00:50:51;15.35;;;11.00;;
17812;SDS011;9030;50.792;8.320;2023-06-26T00:53:18;16.48;;;11.63;;
17812;SDS011;9030;50.792;8.320;2023-06-26T00:55:45;12.20;;;9.88;;
17812;SDS011;9030;50.792;8.320;2023-06-26T00:58:12;12.18;;;10.45;;
17812;SDS011;9030;50.792;8.320;2023-06-26T01:00:39;13.93;;;11.60;;
17812;SDS011;9030;50.792;8.320;2023-06-26T01:03:06;17.55;;;11.20;;
17812;SDS011;9030;50.792;8.320;2023-06-26T01:05:32;14.55;;;11.10;;
17812;SDS011;9030;50.792;8.320;2023-06-26T01:08:00;13.35;;;10.80;;
17812;SDS011;9030;50.792;8.320;2023-06-26T01:10:28;14.02;;;11.90;;
17812;SDS011;9030;50.792;8.320;2023-06-26T01:12:55;14.10;;;11.80;;
17812;SDS011;9030;50.792;8.320;2023-06-26T01:15:22;12.35;;;10.43;;
17812;SDS011;9030;50.792;8.320;2023-06-26T01:17:49;19.50;;;12.10;;
17812;SDS011;9030;50.792;8.320;2023-06-26T01:20:17;13.82;;;11.23;;
17812;SDS011;9030;50.792;8.320;2023-06-26T01:22:47;13.45;;;12.05;;
17812;SDS011;9030;50.792;8.320;2023-06-26T01:25:28;13.02;;;10.23;;
17812;SDS011;9030;50.792;8.320;2023-06-26T01:28:04;14.40;;;11.43;;
17812;SDS011;9030;50.792;8.320;2023-06-26T01:30:32;16.75;;;11.57;;
17812;SDS011;9030;50.792;8.320;2023-06-26T01:33:00;15.40;;;11.48;;
17812;SDS011;9030;50.792;8.320;2023-06-26T01:35:27;13.38;;;11.98;;
17812;SDS011;9030;50.792;8.320;2023-06-26T01:40:40;14.43;;;11.45;;
17812;SDS011;9030;50.792;8.320;2023-06-26T01:43:11;13.07;;;11.63;;
17812;SDS011;9030;50.792;8.320;2023-06-26T01:45:44;16.95;;;12.48;;
17812;SDS011;9030;50.792;8.320;2023-06-26T01:48:14;16.05;;;11.43;;
17812;SDS011;9030;50.792;8.320;2023-06-26T01:50:46;14.02;;;11.13;;
17812;SDS011;9030;50.792;8.320;2023-06-26T01:53:16;15.85;;;11.95;;
17812;SDS011;9030;50.792;8.320;2023-06-26T01:55:46;13.48;;;11.35;;
17812;SDS011;9030;50.792;8.320;2023-06-26T01:58:17;13.77;;;11.63;;
17812;SDS011;9030;50.792;8.320;2023-06-26T02:00:46;14.32;;;12.75;;
17812;SDS011;9030;50.792;8.320;2023-06-26T02:03:13;16.08;;;12.20;;
17812;SDS011;9030;50.792;8.320;2023-06-26T02:05:40;14.25;;;10.98;;
17812;SDS011;9030;50.792;8.320;2023-06-26T02:08:07;13.63;;;10.55;;
17812;SDS011;9030;50.792;8.320;2023-06-26T02:10:35;15.27;;;12.95;;
17812;SDS011;9030;50.792;8.320;2023-06-26T02:13:01;13.52;;;11.35;;
17812;SDS011;9030;50.792;8.320;2023-06-26T02:15:29;14.15;;;11.82;;
17812;SDS011;9030;50.792;8.320;2023-06-26T02:17:56;14.80;;;12.10;;
17812;SDS011;9030;50.792;8.320;2023-06-26T02:20:23;15.90;;;11.95;;
17812;SDS011;9030;50.792;8.320;2023-06-26T02:22:49;14.90;;;13.30;;
17812;SDS011;9030;50.792;8.320;2023-06-26T02:25:17;15.73;;;12.82;;
17812;SDS011;9030;50.792;8.320;2023-06-26T02:27:43;14.75;;;13.18;;
17812;SDS011;9030;50.792;8.320;2023-06-26T02:30:10;14.98;;;12.60;;
17812;SDS011;9030;50.792;8.320;2023-06-26T02:32:38;14.30;;;11.30;;
17812;SDS011;9030;50.792;8.320;2023-06-26T02:35:05;16.00;;;12.30;;
17812;SDS011;9030;50.792;8.320;2023-06-26T02:37:33;14.02;;;11.95;;
17812;SDS011;9030;50.792;8.320;2023-06-26T02:39:59;14.38;;;12.20;;
17812;SDS011;9030;50.792;8.320;2023-06-26T02:42:26;15.20;;;12.82;;
17812;SDS011;9030;50.792;8.320;2023-06-26T02:44:53;15.15;;;12.23;;
17812;SDS011;9030;50.792;8.320;2023-06-26T02:47:19;16.45;;;11.85;;
17812;SDS011;9030;50.792;8.320;2023-06-26T02:49:47;15.35;;;12.68;;
17812;SDS011;9030;50.792;8.320;2023-06-26T02:52:14;16.67;;;13.18;;
17812;SDS011;9030;50.792;8.320;2023-06-26T02:54:40;17.67;;;12.98;;
17812;SDS011;9030;50.792;8.320;2023-06-26T02:57:07;17.70;;;12.93;;
17812;SDS011;9030;50.792;8.320;2023-06-26T02:59:34;15.80;;;13.18;;
17812;SDS011;9030;50.792;8.320;2023-06-26T03:02:00;17.17;;;13.93;;
17812;SDS011;9030;50.792;8.320;2023-06-26T03:04:27;14.32;;;12.82;;
17812;SDS011;9030;50.792;8.320;2023-06-26T03:06:55;15.73;;;14.05;;
17812;SDS011;9030;50.792;8.320;2023-06-26T03:09:21;14.68;;;12.55;;
17812;SDS011;9030;50.792;8.320;2023-06-26T03:11:48;14.93;;;13.27;;
17812;SDS011;9030;50.792;8.320;2023-06-26T03:14:15;15.20;;;12.95;;
17812;SDS011;9030;50.792;8.320;2023-06-26T03:16:41;14.77;;;13.27;;
17812;SDS011;9030;50.792;8.320;2023-06-26T03:19:08;15.48;;;12.95;;
17812;SDS011;9030;50.792;8.320;2023-06-26T03:21:35;14.18;;;12.48;;
17812;SDS011;9030;50.792;8.320;2023-06-26T03:24:03;15.38;;;13.77;;
17812;SDS011;9030;50.792;8.320;2023-06-26T03:26:30;14.60;;;12.85;;
17812;SDS011;9030;50.792;8.320;2023-06-26T03:28:57;14.82;;;13.05;;
17812;SDS011;9030;50.792;8.320;2023-06-26T03:31:24;16.05;;;13.23;;
17812;SDS011;9030;50.792;8.320;2023-06-26T03:33:50;15.07;;;12.95;;
17812;SDS011;9030;50.792;8.320;2023-06-26T03:36:17;17.75;;;13.05;;
17812;SDS011;9030;50.792;8.320;2023-06-26T03:38:44;16.80;;;13.55;;
17812;SDS011;9030;50.792;8.320;2023-06-26T03:41:12;14.40;;;12.60;;
17812;SDS011;9030;50.792;8.320;2023-06-26T03:43:38;14.63;;;13.02;;
17812;SDS011;9030;50.792;8.320;2023-06-26T03:46:05;13.95;;;12.45;;
17812;SDS011;9030;50.792;8.320;2023-06-26T03:48:32;21.67;;;14.90;;
17812;SDS011;9030;50.792;8.320;2023-06-26T03:50:58;14.63;;;13.02;;
17812;SDS011;9030;50.792;8.320;2023-06-26T03:53:27;14.07;;;12.65;;
17812;SDS011;9030;50.792;8.320;2023-06-26T03:55:53;15.23;;;13.60;;
17812;SDS011;9030;50.792;8.320;2023-06-26T03:58:21;17.15;;;14.35;;
17812;SDS011;9030;50.792;8.320;2023-06-26T04:00:48;14.77;;;12.75;;
17812;SDS011;9030;50.792;8.320;2023-06-26T04:03:15;17.63;;;13.13;;
17812;SDS011;9030;50.792;8.320;2023-06-26T04:05:41;13.27;;;11.88;;
17812;SDS011;9030;50.792;8.320;2023-06-26T04:08:09;15.07;;;13.13;;
17812;SDS011;9030;50.792;8.320;2023-06-26T04:10:35;15.30;;;12.68;;
17812;SDS011;9030;50.792;8.320;2023-06-26T04:13:02;16.90;;;12.85;;
17812;SDS011;9030;50.792;8.320;2023-06-26T04:15:30;15.00;;;12.15;;
17812;SDS011;9030;50.792;8.320;2023-06-26T04:17:56;14.27;;;12.48;;
17812;SDS011;9030;50.792;8.320;2023-06-26T04:20:23;14.18;;;12.32;;
17812;SDS011;9030;50.792;8.320;2023-06-26T04:22:50;15.52;;;13.88;;
17812;SDS011;9030;50.792;8.320;2023-06-26T04:25:16;14.98;;;12.50;;
17812;SDS011;9030;50.792;8.320;2023-06-26T04:27:43;16.40;;;12.32;;
17812;SDS011;9030;50.792;8.320;2023-06-26T04:30:10;14.65;;;13.00;;
17812;SDS011;9030;50.792;8.320;2023-06-26T04:32:39;14.18;;;12.15;;
17812;SDS011;9030;50.792;8.320;2023-06-26T04:35:06;14.13;;;11.93;;
17812;SDS011;9030;50.792;8.320;2023-06-26T04:37:35;15.93;;;12.18;;
17812;SDS011;9030;50.792;8.320;2023-06-26T04:40:01;14.70;;;13.05;;
17812;SDS011;9030;50.792;8.320;2023-06-26T04:42:29;16.13;;;12.15;;
17812;SDS011;9030;50.792;8.320;2023-06-26T04:44:56;13.55;;;11.45;;
17812;SDS011;9030;50.792;8.320;2023-06-26T04:47:23;17.52;;;15.82;;
17812;SDS011;9030;50.792;8.320;2023-06-26T04:49:51;16.75;;;15.05;;
17812;SDS011;9030;50.792;8.320;2023-06-26T04:52:17;15.32;;;12.70;;
17812;SDS011;9030;50.792;8.320;2023-06-26T04:54:44;14.63;;;12.70;;
17812;SDS011;9030;50.792;8.320;2023-06-26T04:57:11;15.07;;;13.48;;
17812;SDS011;9030;50.792;8.320;2023-06-26T04:59:37;14.80;;;13.18;;
17812;SDS011;9030;50.792;8.320;2023-06-26T05:02:04;13.95;;;12.27;;
17812;SDS011;9030;50.792;8.320;2023-06-26T05:04:31;15.60;;;13.70;;
17812;SDS011;9030;50.792;8.320;2023-06-26T05:06:59;18.25;;;12.65;;
17812;SDS011;9030;50.792;8.320;2023-06-26T05:09:26;13.35;;;11.95;;
17812;SDS011;9030;50.792;8.320;2023-06-26T05:11:52;16.05;;;14.43;;
17812;SDS011;9030;50.792;8.320;2023-06-26T05:14:19;14.50;;;12.80;;
17812;SDS011;9030;50.792;8.320;2023-06-26T05:16:46;16.98;;;13.55;;
17812;SDS011;9030;50.792;8.320;2023-06-26T05:19:12;15.45;;;13.80;;
17812;SDS011;9030;50.792;8.320;2023-06-26T05:21:39;17.13;;;14.20;;
17812;SDS011;9030;50.792;8.320;2023-06-26T05:24:08;15.52;;;13.75;;
17812;SDS011;9030;50.792;8.320;2023-06-26T05:26:36;15.70;;;13.02;;
17812;SDS011;9030;50.792;8.320;2023-06-26T05:29:03;14.88;;;12.50;;
17812;SDS011;9030;50.792;8.320;2023-06-26T05:31:30;14.02;;;11.63;;
17812;SDS011;9030;50.792;8.320;2023-06-26T05:34:00;14.27;;;11.55;;
17812;SDS011;9030;50.792;8.320;2023-06-26T05:36:29;14.60;;;12.93;;
17812;SDS011;9030;50.792;8.320;2023-06-26T05:38:58;16.52;;;13.45;;
17812;SDS011;9030;50.792;8.320;2023-06-26T05:41:27;15.32;;;13.45;;
17812;SDS011;9030;50.792;8.320;2023-06-26T05:43:54;17.55;;;12.30;;
17812;SDS011;9030;50.792;8.320;2023-06-26T05:46:20;14.23;;;12.20;;
17812;SDS011;9030;50.792;8.320;2023-06-26T05:48:47;15.23;;;11.98;;
17812;SDS011;9030;50.792;8.320;2023-06-26T05:51:14;15.93;;;11.95;;
17812;SDS011;9030;50.792;8.320;2023-06-26T05:53:41;12.95;;;10.40;;
17812;SDS011;9030;50.792;8.320;2023-06-26T05:56:09;15.15;;;11.75;;
17812;SDS011;9030;50.792;8.320;2023-06-26T05:58:37;13.95;;;11.38;;
17812;SDS011;9030;50.792;8.320;2023-06-26T06:01:05;15.43;;;11.85;;
17812;SDS011;9030;50.792;8.320;2023-06-26T06:03:32;15.30;;;12.50;;
17812;SDS011;9030;50.792;8.320;2023-06-26T06:05:58;13.15;;;11.38;;
17812;SDS011;9030;50.792;8.320;2023-06-26T06:08:25;14.40;;;11.18;;
17812;SDS011;9030;50.792;8.320;2023-06-26T06:10:52;13.70;;;11.88;;
17812;SDS011;9030;50.792;8.320;2023-06-26T06:13:19;15.38;;;12.60;;
17812;SDS011;9030;50.792;8.320;2023-06-26T06:15:47;13.82;;;11.60;;
17812;SDS011;9030;50.792;8.320;2023-06-26T06:18:13;13.40;;;12.00;;
17812;SDS011;9030;50.792;8.320;2023-06-26T06:20:40;13.27;;;11.73;;
17812;SDS011;9030;50.792;8.320;2023-06-26T06:23:07;15.23;;;10.98;;
17812;SDS011;9030;50.792;8.320;2023-06-26T06:25:34;17.20;;;11.95;;
17812;SDS011;9030;50.792;8.320;2023-06-26T06:28:00;13.32;;;11.38;;
17812;SDS011;9030;50.792;8.320;2023-06-26T06:30:27;13.07;;;10.90;;
17812;SDS011;9030;50.792;8.320;2023-06-26T06:32:55;17.45;;;11.45;;
17812;SDS011;9030;50.792;8.320;2023-06-26T06:35:22;14.75;;;10.75;;
17812;SDS011;9030;50.792;8.320;2023-06-26T06:37:49;12.95;;;11.55;;
17812;SDS011;9030;50.792;8.320;2023-06-26T06:40:15;13.63;;;10.25;;
17812;SDS011;9030;50.792;8.320;2023-06-26T06:42:42;16.60;;;10.48;;
17812;SDS011;9030;50.792;8.320;2023-06-26T06:45:09;14.30;;;10.85;;
17812;SDS011;9030;50.792;8.320;2023-06-26T06:47:35;13.27;;;10.38;;
17812;SDS011;9030;50.792;8.320;2023-06-26T06:50:04;12.85;;;10.90;;
17812;SDS011;9030;50.792;8.320;2023-06-26T06:52:34;12.80;;;10.68;;
17812;SDS011;9030;50.792;8.320;2023-06-26T06:55:02;12.90;;;10.23;;
17812;SDS011;9030;50.792;8.320;2023-06-26T06:57:31;12.77;;;10.43;;
17812;SDS011;9030;50.792;8.320;2023-06-26T07:00:00;11.45;;;9.60;;
17812;SDS011;9030;50.792;8.320;2023-06-26T07:02:29;14.07;;;10.93;;
17812;SDS011;9030;50.792;8.320;2023-06-26T07:04:56;13.23;;;11.68;;
17812;SDS011;9030;50.792;8.320;2023-06-26T07:07:24;14.48;;;10.70;;
17812;SDS011;9030;50.792;8.320;2023-06-26T07:09:56;16.55;;;11.88;;
17812;SDS011;9030;50.792;8.320;2023-06-26T07:12:23;13.95;;;10.48;;
17812;SDS011;9030;50.792;8.320;2023-06-26T07:14:50;15.15;;;11.07;;
17812;SDS011;9030;50.792;8.320;2023-06-26T07:17:16;15.10;;;11.07;;
17812;SDS011;9030;50.792;8.320;2023-06-26T07:19:43;11.75;;;9.45;;
17812;SDS011;9030;50.792;8.320;2023-06-26T07:22:10;13.38;;;10.18;;
17812;SDS011;9030;50.792;8.320;2023-06-26T07:24:38;12.45;;;10.88;;
17812;SDS011;9030;50.792;8.320;2023-06-26T07:27:05;12.88;;;10.82;;
17812;SDS011;9030;50.792;8.320;2023-06-26T07:29:31;15.50;;;11.73;;
17812;SDS011;9030;50.792;8.320;2023-06-26T07:31:58;12.13;;;10.18;;
17812;SDS011;9030;50.792;8.320;2023-06-26T07:34:25;14.32;;;10.55;;
17812;SDS011;9030;50.792;8.320;2023-06-26T07:36:51;11.93;;;10.23;;
17812;SDS011;9030;50.792;8.320;2023-06-26T07:39:19;16.00;;;11.25;;
17812;SDS011;9030;50.792;8.320;2023-06-26T07:41:47;14.20;;;11.18;;
17812;SDS011;9030;50.792;8.320;2023-06-26T07:44:13;15.23;;;11.50;;
17812;SDS011;9030;50.792;8.320;2023-06-26T07:46:40;13.68;;;9.60;;
17812;SDS011;9030;50.792;8.320;2023-06-26T07:49:07;13.02;;;11.02;;
17812;SDS011;9030;50.792;8.320;2023-06-26T07:51:34;14.43;;;10.30;;
17812;SDS011;9030;50.792;8.320;2023-06-26T07:54:00;12.32;;;10.88;;
17812;SDS011;9030;50.792;8.320;2023-06-26T07:56:27;15.90;;;11.27;;
17812;SDS011;9030;50.792;8.320;2023-06-26T07:58:55;13.45;;;11.02;;
17812;SDS011;9030;50.792;8.320;2023-06-26T08:01:23;12.50;;;9.23;;
17812;SDS011;9030;50.792;8.320;2023-06-26T08:03:50;14.13;;;11.40;;
17812;SDS011;9030;50.792;8.320;2023-06-26T08:06:17;14.98;;;11.80;;
17812;SDS011;9030;50.792;8.320;2023-06-26T08:08:43;14.98;;;11.48;;
17812;SDS011;9030;50.792;8.320;2023-06-26T08:11:10;15.52;;;10.90;;
17812;SDS011;9030;50.792;8.320;2023-06-26T08:13:37;12.05;;;9.85;;
17812;SDS011;9030;50.792;8.320;2023-06-26T08:16:05;13.95;;;10.40;;
17812;SDS011;9030;50.792;8.320;2023-06-26T08:18:32;13.52;;;10.40;;
17812;SDS011;9030;50.792;8.320;2023-06-26T08:20:59;15.25;;;10.80;;
17812;SDS011;9030;50.792;8.320;2023-06-26T08:23:25;14.70;;;10.63;;
17812;SDS011;9030;50.792;8.320;2023-06-26T08:25:52;11.60;;;10.32;;
17812;SDS011;9030;50.792;8.320;2023-06-26T08:28:19;14.85;;;10.27;;
17812;SDS011;9030;50.792;8.320;2023-06-26T08:30:45;15.88;;;10.57;;
17812;SDS011;9030;50.792;8.320;2023-06-26T08:33:13;12.63;;;10.57;;
17812;SDS011;9030;50.792;8.320;2023-06-26T08:35:40;15.70;;;10.77;;
17812;SDS011;9030;50.792;8.320;2023-06-26T08:38:07;13.90;;;11.38;;
17812;SDS011;9030;50.792;8.320;2023-06-26T08:40:34;16.35;;;9.90;;
17812;SDS011;9030;50.792;8.320;2023-06-26T08:43:02;13.90;;;10.18;;
17812;SDS011;9030;50.792;8.320;2023-06-26T08:45:29;14.20;;;9.77;;
17812;SDS011;9030;50.792;8.320;2023-06-26T08:47:55;15.55;;;10.02;;
17812;SDS011;9030;50.792;8.320;2023-06-26T08:50:28;16.80;;;10.73;;
17812;SDS011;9030;50.792;8.320;2023-06-26T08:53:01;21.30;;;10.15;;
17812;SDS011;9030;50.792;8.320;2023-06-26T08:55:32;12.05;;;8.80;;
17812;SDS011;9030;50.792;8.320;2023-06-26T08:58:01;15.73;;;9.05;;
17812;SDS011;9030;50.792;8.320;2023-06-26T09:00:28;17.33;;;9.80;;
17812;SDS011;9030;50.792;8.320;2023-06-26T09:02:56;12.88;;;10.00;;
17812;SDS011;9030;50.792;8.320;2023-06-26T09:05:22;13.38;;;10.07;;
17812;SDS011;9030;50.792;8.320;2023-06-26T09:07:50;16.20;;;10.82;;
17812;SDS011;9030;50.792;8.320;2023-06-26T09:10:20;13.18;;;9.95;;
17812;SDS011;9030;50.792;8.320;2023-06-26T09:12:47;16.83;;;10.38;;
17812;SDS011;9030;50.792;8.320;2023-06-26T09:15:14;15.07;;;11.70;;
17812;SDS011;9030;50.792;8.320;2023-06-26T09:17:41;12.35;;;10.10;;
17812;SDS011;9030;50.792;8.320;2023-06-26T09:20:08;12.40;;;9.75;;
17812;SDS011;9030;50.792;8.320;2023-06-26T09:22:37;13.25;;;10.48;;
17812;SDS011;9030;50.792;8.320;2023-06-26T09:25:06;14.35;;;9.43;;
17812;SDS011;9030;50.792;8.320;2023-06-26T09:27:33;13.27;;;9.68;;
17812;SDS011;9030;50.792;8.320;2023-06-26T09:30:01;11.82;;;9.40;;
17812;SDS011;9030;50.792;8.320;2023-06-26T09:32:28;14.40;;;10.48;;
17812;SDS011;9030;50.792;8.320;2023-06-26T09:34:55;14.57;;;11.13;;
17812;SDS011;9030;50.792;8.320;2023-06-26T09:37:22;15.30;;;11.35;;
17812;SDS011;9030;50.792;8.320;2023-06-26T09:39:50;17.20;;;10.13;;
17812;SDS011;9030;50.792;8.320;2023-06-26T09:42:18;16.48;;;11.82;;
17812;SDS011;9030;50.792;8.320;2023-06-26T09:44:45;14.02;;;11.15;;
17812;SDS011;9030;50.792;8.320;2023-06-26T09:47:12;11.40;;;9.68;;
17812;SDS011;9030;50.792;8.320;2023-06-26T09:49:42;12.98;;;9.57;;
17812;SDS011;9030;50.792;8.320;2023-06-26T09:52:10;15.32;;;9.48;;
17812;SDS011;9030;50.792;8.320;2023-06-26T09:54:41;12.00;;;8.40;;
17812;SDS011;9030;50.792;8.320;2023-06-26T09:57:10;12.25;;;6.85;;
17812;SDS011;9030;50.792;8.320;2023-06-26T09:59:39;14.15;;;7.88;;
17812;SDS011;9030;50.792;8.320;2023-06-26T10:02:06;12.65;;;7.63;;
17812;SDS011;9030;50.792;8.320;2023-06-26T10:04:34;12.98;;;7.82;;
17812;SDS011;9030;50.792;8.320;2023-06-26T10:07:01;12.93;;;8.38;;
17812;SDS011;9030;50.792;8.320;2023-06-26T10:09:30;17.73;;;9.18;;
17812;SDS011;9030;50.792;8.320;2023-06-26T10:11:58;12.70;;;8.20;;
17812;SDS011;9030;50.792;8.320;2023-06-26T10:14:32;13.63;;;8.45;;
17812;SDS011;9030;50.792;8.320;2023-06-26T10:17:03;11.02;;;7.75;;
17812;SDS011;9030;50.792;8.320;2023-06-26T10:19:32;15.43;;;8.75;;
17812;SDS011;9030;50.792;8.320;2023-06-26T10:22:01;13.85;;;8.88;;
17812;SDS011;9030;50.792;8.320;2023-06-26T10:24:29;14.95;;;9.40;;
17812;SDS011;9030;50.792;8.320;2023-06-26T10:27:02;14.18;;;9.63;;
17812;SDS011;9030;50.792;8.320;2023-06-26T10:29:32;12.68;;;8.45;;
17812;SDS011;9030;50.792;8.320;2023-06-26T10:32:02;12.75;;;8.80;;
17812;SDS011;9030;50.792;8.320;2023-06-26T10:34:31;15.27;;;8.32;;
17812;SDS011;9030;50.792;8.320;2023-06-26T10:37:01;13.05;;;9.02;;
17812;SDS011;9030;50.792;8.320;2023-06-26T10:39:32;12.77;;;8.50;;
17812;SDS011;9030;50.792;8.320;2023-06-26T10:42:13;11.77;;;9.00;;
17812;SDS011;9030;50.792;8.320;2023-06-26T10:44:40;13.40;;;9.23;;
17812;SDS011;9030;50.792;8.320;2023-06-26T10:47:10;13.68;;;9.38;;
17812;SDS011;9030;50.792;8.320;2023-06-26T10:49:37;12.88;;;9.75;;
17812;SDS011;9030;50.792;8.320;2023-06-26T10:52:05;15.10;;;8.68;;
17812;SDS011;9030;50.792;8.320;2023-06-26T10:54:32;14.40;;;9.20;;
17812;SDS011;9030;50.792;8.320;2023-06-26T10:56:59;12.40;;;8.73;;
17812;SDS011;9030;50.792;8.320;2023-06-26T10:59:27;16.42;;;8.98;;
17812;SDS011;9030;50.792;8.320;2023-06-26T11:01:56;14.77;;;9.32;;
17812;SDS011;9030;50.792;8.320;2023-06-26T11:04:37;12.50;;;7.70;;
17812;SDS011;9030;50.792;8.320;2023-06-26T11:07:15;13.23;;;9.10;;
17812;SDS011;9030;50.792;8.320;2023-06-26T11:09:54;14.40;;;9.32;;
17812;SDS011;9030;50.792;8.320;2023-06-26T11:12:34;15.25;;;8.88;;
17812;SDS011;9030;50.792;8.320;2023-06-26T11:15:01;14.15;;;7.97;;
17812;SDS011;9030;50.792;8.320;2023-06-26T11:17:28;14.05;;;7.22;;
17812;SDS011;9030;50.792;8.320;2023-06-26T11:19:57;11.10;;;6.75;;
17812;SDS011;9030;50.792;8.320;2023-06-26T11:22:24;12.45;;;7.05;;
17812;SDS011;9030;50.792;8.320;2023-06-26T11:24:53;12.50;;;7.25;;
17812;SDS011;9030;50.792;8.320;2023-06-26T11:27:20;15.15;;;7.45;;
17812;SDS011;9030;50.792;8.320;2023-06-26T11:29:49;16.15;;;7.93;;
17812;SDS011;9030;50.792;8.320;2023-06-26T11:32:15;13.32;;;6.95;;
17812;SDS011;9030;50.792;8.320;2023-06-26T11:34:42;18.25;;;7.80;;
17812;SDS011;9030;50.792;8.320;2023-06-26T11:37:10;11.18;;;7.28;;
17812;SDS011;9030;50.792;8.320;2023-06-26T11:39:37;15.48;;;6.30;;
17812;SDS011;9030;50.792;8.320;2023-06-26T11:42:04;11.63;;;6.55;;
17812;SDS011;9030;50.792;8.320;2023-06-26T11:44:31;16.70;;;8.00;;
17812;SDS011;9030;50.792;8.320;2023-06-26T11:46:58;15.38;;;8.15;;
17812;SDS011;9030;50.792;8.320;2023-06-26T11:49:25;14.98;;;7.45;;
17812;SDS011;9030;50.792;8.320;2023-06-26T11:51:52;13.70;;;7.22;;
17812;SDS011;9030;50.792;8.320;2023-06-26T11:54:25;12.57;;;7.88;;
17812;SDS011;9030;50.792;8.320;2023-06-26T11:56:53;14.50;;;7.53;;
17812;SDS011;9030;50.792;8.320;2023-06-26T11:59:22;16.20;;;7.53;;
17812;SDS011;9030;50.792;8.320;2023-06-26T12:01:50;10.55;;;6.80;;
17812;SDS011;9030;50.792;8.320;2023-06-26T12:04:19;11.52;;;7.07;;
17812;SDS011;9030;50.792;8.320;2023-06-26T12:06:47;16.13;;;6.97;;
17812;SDS011;9030;50.792;8.320;2023-06-26T12:09:17;12.82;;;6.30;;
17812;SDS011;9030;50.792;8.320;2023-06-26T12:11:46;11.55;;;5.55;;
17812;SDS011;9030;50.792;8.320;2023-06-26T12:14:16;11.00;;;5.25;;
17812;SDS011;9030;50.792;8.320;2023-06-26T12:16:44;13.38;;;6.00;;
17812;SDS011;9030;50.792;8.320;2023-06-26T12:19:10;17.05;;;6.47;;
17812;SDS011;9030;50.792;8.320;2023-06-26T12:21:44;12.65;;;5.97;;
17812;SDS011;9030;50.792;8.320;2023-06-26T12:24:17;9.27;;;4.60;;
17812;SDS011;9030;50.792;8.320;2023-06-26T12:26:47;9.43;;;4.43;;
17812;SDS011;9030;50.792;8.320;2023-06-26T12:29:17;11.95;;;4.47;;
17812;SDS011;9030;50.792;8.320;2023-06-26T12:31:45;12.52;;;5.30;;
17812;SDS011;9030;50.792;8.320;2023-06-26T12:34:15;12.10;;;5.18;;
17812;SDS011;9030;50.792;8.320;2023-06-26T12:36:44;10.57;;;5.57;;
17812;SDS011;9030;50.792;8.320;2023-06-26T12:39:14;12.27;;;5.13;;
17812;SDS011;9030;50.792;8.320;2023-06-26T12:41:47;11.05;;;4.47;;
17812;SDS011;9030;50.792;8.320;2023-06-26T12:44:18;13.65;;;5.10;;
17812;SDS011;9030;50.792;8.320;2023-06-26T12:46:46;9.40;;;4.40;;
17812;SDS011;9030;50.792;8.320;2023-06-26T12:49:13;9.60;;;4.15;;
17812;SDS011;9030;50.792;8.320;2023-06-26T12:51:40;6.85;;;3.53;;
17812;SDS011;9030;50.792;8.320;2023-06-26T12:54:07;10.65;;;4.40;;
17812;SDS011;9030;50.792;8.320;2023-06-26T12:56:34;15.57;;;5.45;;
17812;SDS011;9030;50.792;8.320;2023-06-26T12:59:02;10.38;;;4.63;;
17812;SDS011;9030;50.792;8.320;2023-06-26T13:01:29;10.20;;;4.90;;
17812;SDS011;9030;50.792;8.320;2023-06-26T13:03:56;13.43;;;4.53;;
17812;SDS011;9030;50.792;8.320;2023-06-26T13:06:22;14.82;;;4.55;;
17812;SDS011;9030;50.792;8.320;2023-06-26T13:08:49;11.20;;;4.10;;
17812;SDS011;9030;50.792;8.320;2023-06-26T13:11:16;13.63;;;4.53;;
17812;SDS011;9030;50.792;8.320;2023-06-26T13:13:42;9.07;;;4.65;;
17812;SDS011;9030;50.792;8.320;2023-06-26T13:16:10;9.20;;;4.35;;
17812;SDS011;9030;50.792;8.320;2023-06-26T13:18:37;10.15;;;4.20;;
17812;SDS011;9030;50.792;8.320;2023-06-26T13:21:04;9.27;;;4.05;;
17812;SDS011;9030;50.792;8.320;2023-06-26T13:23:30;13.38;;;4.18;;
17812;SDS011;9030;50.792;8.320;2023-06-26T13:25:57;12.43;;;4.35;;
17812;SDS011;9030;50.792;8.320;2023-06-26T13:28:24;12.65;;;4.68;;
17812;SDS011;9030;50.792;8.320;2023-06-26T13:30:50;16.45;;;4.70;;
17812;SDS011;9030;50.792;8.320;2023-06-26T13:33:18;13.75;;;4.35;;
17812;SDS011;9030;50.792;8.320;2023-06-26T13:35:45;8.32;;;3.33;;
17812;SDS011;9030;50.792;8.320;2023-06-26T13:38:11;7.40;;;3.22;;
17812;SDS011;9030;50.792;8.320;2023-06-26T13:40:38;9.85;;;3.28;;
17812;SDS011;9030;50.792;8.320;2023-06-26T13:43:04;9.43;;;3.03;;
17812;SDS011;9030;50.792;8.320;2023-06-26T13:45:31;7.97;;;3.63;;
17812;SDS011;9030;50.792;8.320;2023-06-26T13:47:58;8.20;;;3.03;;
17812;SDS011;9030;50.792;8.320;2023-06-26T13:50:26;7.43;;;3.60;;
17812;SDS011;9030;50.792;8.320;2023-06-26T13:52:52;9.75;;;3.83;;
17812;SDS011;9030;50.792;8.320;2023-06-26T13:55:19;9.70;;;3.25;;
17812;SDS011;9030;50.792;8.320;2023-06-26T13:57:47;12.07;;;3.80;;
17812;SDS011;9030;50.792;8.320;2023-06-26T14:00:14;12.43;;;3.38;;
17812;SDS011;9030;50.792;8.320;2023-06-26T14:02:44;6.68;;;3.70;;
17812;SDS011;9030;50.792;8.320;2023-06-26T14:05:11;9.88;;;3.40;;
17812;SDS011;9030;50.792;8.320;2023-06-26T14:07:39;13.65;;;2.97;;
17812;SDS011;9030;50.792;8.320;2023-06-26T14:10:08;10.38;;;3.42;;
17812;SDS011;9030;50.792;8.320;2023-06-26T14:12:35;6.30;;;2.70;;
17812;SDS011;9030;50.792;8.320;2023-06-26T14:15:02;7.45;;;3.17;;
17812;SDS011;9030;50.792;8.320;2023-06-26T14:17:30;8.70;;;3.30;;
17812;SDS011;9030;50.792;8.320;2023-06-26T14:19:56;8.85;;;4.13;;
17812;SDS011;9030;50.792;8.320;2023-06-26T14:22:23;7.10;;;3.08;;
17812;SDS011;9030;50.792;8.320;2023-06-26T14:24:51;12.95;;;4.03;;
17812;SDS011;9030;50.792;8.320;2023-06-26T14:27:18;9.43;;;3.70;;
17812;SDS011;9030;50.792;8.320;2023-06-26T14:29:45;8.82;;;2.65;;
17812;SDS011;9030;50.792;8.320;2023-06-26T14:32:12;10.38;;;3.75;;
17812;SDS011;9030;50.792;8.320;2023-06-26T14:34:39;12.75;;;3.55;;
17812;SDS011;9030;50.792;8.320;2023-06-26T14:37:06;11.65;;;4.15;;
17812;SDS011;9030;50.792;8.320;2023-06-26T14:39:32;15.63;;;5.28;;
17812;SDS011;9030;50.792;8.320;2023-06-26T14:42:00;11.60;;;3.25;;
17812;SDS011;9030;50.792;8.320;2023-06-26T14:44:27;7.57;;;3.25;;
17812;SDS011;9030;50.792;8.320;2023-06-26T14:46:54;7.53;;;3.13;;